createdAt,value
2018-04-22T00:00:42.544Z,10.70
2018-04-22T00:03:09.129Z,9.63
2018-04-22T00:05:35.724Z,10.53
2018-04-22T00:08:02.304Z,9.90
2018-04-22T00:10:28.903Z,9.83
2018-04-22T00:12:55.493Z,10.23
2018-04-22T00:15:22.084Z,10.10
2018-04-22T00:17:48.664Z,9.97
2018-04-22T00:20:15.265Z,11.10
2018-04-22T00:22:41.856Z,10.27
2018-04-22T00:25:08.447Z,9.60
2018-04-22T00:27:35.116Z,9.90
2018-04-22T00:30:01.694Z,10.60
2018-04-22T00:32:28.287Z,10.40
2018-04-22T00:34:54.873Z,11.07
2018-04-22T00:37:21.467Z,11.00
2018-04-22T00:39:48.052Z,11.40
2018-04-22T00:42:14.652Z,11.17
2018-04-22T00:44:41.271Z,11.03
2018-04-22T00:47:07.880Z,10.80
2018-04-22T00:49:34.463Z,10.17
2018-04-22T00:52:01.052Z,10.43
2018-04-22T00:54:27.657Z,10.00
2018-04-22T00:56:54.249Z,10.63
2018-04-22T00:59:20.838Z,10.00
2018-04-22T01:01:47.450Z,10.43
2018-04-22T01:04:14.017Z,10.23
2018-04-22T01:06:40.614Z,11.00
2018-04-22T01:09:07.211Z,11.10
2018-04-22T01:11:33.841Z,11.63
2018-04-22T01:14:00.427Z,12.13
2018-04-22T01:16:27.037Z,12.27
2018-04-22T01:18:53.652Z,12.30
2018-04-22T01:21:20.228Z,12.87
2018-04-22T01:23:46.820Z,12.20
2018-04-22T01:26:13.418Z,12.03
2018-04-22T01:28:40.003Z,11.40
2018-04-22T01:31:06.601Z,11.97
2018-04-22T01:33:33.189Z,11.30
2018-04-22T01:35:59.800Z,12.07
2018-04-22T01:38:26.373Z,11.20
2018-04-22T01:40:53.232Z,10.47
2018-04-22T01:43:19.820Z,11.30
2018-04-22T01:45:46.406Z,11.50
2018-04-22T01:48:13.000Z,12.13
2018-04-22T01:50:39.591Z,11.70
2018-04-22T01:53:06.189Z,13.07
2018-04-22T01:55:32.772Z,13.73
2018-04-22T01:57:59.368Z,13.60
2018-04-22T02:00:25.957Z,13.40
2018-04-22T02:02:52.756Z,12.90
2018-04-22T02:05:19.344Z,12.80
2018-04-22T02:07:45.934Z,13.60
2018-04-22T02:10:12.525Z,13.57
2018-04-22T02:12:39.109Z,13.67
2018-04-22T02:15:05.700Z,12.57
2018-04-22T02:17:32.284Z,12.20
2018-04-22T02:19:58.903Z,11.30
2018-04-22T02:22:25.544Z,11.30
2018-04-22T02:24:52.124Z,11.00
2018-04-22T02:27:18.708Z,11.43
2018-04-22T02:29:45.394Z,10.97
2018-04-22T02:32:11.969Z,10.63
2018-04-22T02:34:38.565Z,10.80
2018-04-22T02:37:05.144Z,9.80
2018-04-22T02:39:31.733Z,10.37
2018-04-22T02:41:58.328Z,10.20
2018-04-22T02:44:24.916Z,11.07
2018-04-22T02:46:51.535Z,10.97
2018-04-22T02:49:18.104Z,11.00
2018-04-22T02:51:44.689Z,11.17
2018-04-22T02:54:11.284Z,11.10
2018-04-22T02:56:37.868Z,11.27
2018-04-22T02:59:05.329Z,11.30
2018-04-22T03:01:31.909Z,11.23
2018-04-22T03:03:58.525Z,11.77
2018-04-22T03:06:25.111Z,11.07
2018-04-22T03:08:51.712Z,11.70
2018-04-22T03:11:18.298Z,11.00
2018-04-22T03:13:44.887Z,11.87
2018-04-22T03:16:11.485Z,11.87
2018-04-22T03:18:38.092Z,11.53
2018-04-22T03:21:04.687Z,11.90
2018-04-22T03:23:31.282Z,11.20
2018-04-22T03:25:57.873Z,11.67
2018-04-22T03:28:24.455Z,11.20
2018-04-22T03:30:51.054Z,11.97
2018-04-22T03:33:18.549Z,11.00
2018-04-22T03:35:45.133Z,11.90
2018-04-22T03:38:11.800Z,11.23
2018-04-22T03:40:38.413Z,10.83
2018-04-22T03:43:05.008Z,11.47
2018-04-22T03:45:31.595Z,11.70
2018-04-22T03:47:58.204Z,11.37
2018-04-22T03:50:24.786Z,10.97
2018-04-22T03:52:51.373Z,11.57
2018-04-22T03:55:17.967Z,11.10
2018-04-22T03:57:44.554Z,11.00
2018-04-22T04:00:11.156Z,11.60
2018-04-22T04:02:37.748Z,11.47
2018-04-22T04:05:04.349Z,11.33
2018-04-22T04:07:30.932Z,12.97
2018-04-22T04:09:57.532Z,14.07
2018-04-22T04:12:24.129Z,14.10
2018-04-22T04:14:50.718Z,16.63
2018-04-22T04:17:17.313Z,13.53
2018-04-22T04:19:49.732Z,15.60
2018-04-22T04:22:22.684Z,17.07
2018-04-22T04:24:55.084Z,16.50
2018-04-22T04:27:39.451Z,15.67
2018-04-22T04:30:06.032Z,17.10
2018-04-22T04:32:32.620Z,16.50
2018-04-22T04:34:59.213Z,17.00
2018-04-22T04:37:25.796Z,16.43
2018-04-22T04:39:52.391Z,16.80
2018-04-22T04:42:18.978Z,17.10
2018-04-22T04:44:45.572Z,17.97
2018-04-22T04:47:12.165Z,17.30
2018-04-22T04:49:38.756Z,16.80
2018-04-22T04:52:05.351Z,17.40
2018-04-22T04:54:31.960Z,17.17
2018-04-22T04:56:58.539Z,16.93
2018-04-22T04:59:25.129Z,17.47
2018-04-22T05:01:51.727Z,16.63
2018-04-22T05:04:18.312Z,16.70
2018-04-22T05:06:44.896Z,16.60
2018-04-22T05:09:11.500Z,17.70
2018-04-22T05:11:38.100Z,17.07
2018-04-22T05:14:04.692Z,17.90
2018-04-22T05:16:31.324Z,16.93
2018-04-22T05:18:57.911Z,17.07
2018-04-22T05:21:24.504Z,16.13
2018-04-22T05:23:51.084Z,16.27
2018-04-22T05:26:17.676Z,16.33
2018-04-22T05:28:44.264Z,17.00
2018-04-22T05:31:10.902Z,17.20
2018-04-22T05:33:37.477Z,17.60
2018-04-22T05:36:04.076Z,17.27
2018-04-22T05:38:30.664Z,17.40
2018-04-22T05:40:57.247Z,16.83
2018-04-22T05:43:23.835Z,17.10
2018-04-22T05:45:50.423Z,16.70
2018-04-22T05:48:17.060Z,18.20
2018-04-22T05:50:43.632Z,17.07
2018-04-22T05:53:10.220Z,16.37
2018-04-22T05:55:36.833Z,17.23
2018-04-22T05:58:03.416Z,16.33
2018-04-22T06:00:30.024Z,17.57
2018-04-22T06:02:56.624Z,17.30
2018-04-22T06:05:23.255Z,17.30
2018-04-22T06:07:49.811Z,16.70
2018-04-22T06:10:16.401Z,18.50
2018-04-22T06:12:43.003Z,16.97
2018-04-22T06:15:09.588Z,16.90
2018-04-22T06:17:36.188Z,17.17
2018-04-22T06:20:02.793Z,17.33
2018-04-22T06:22:29.381Z,17.30
2018-04-22T06:24:55.976Z,16.80
2018-04-22T06:27:22.560Z,16.70
2018-04-22T06:29:49.163Z,16.77
2018-04-22T06:32:15.753Z,18.97
2018-04-22T06:34:42.336Z,17.43
2018-04-22T06:37:08.932Z,16.20
2018-04-22T06:39:35.519Z,16.13
2018-04-22T06:42:02.121Z,16.93
2018-04-22T06:44:28.711Z,16.57
2018-04-22T06:46:55.307Z,17.73
2018-04-22T06:49:21.893Z,18.23
2018-04-22T06:51:48.483Z,17.53
2018-04-22T06:54:15.115Z,17.47
2018-04-22T06:56:41.705Z,16.57
2018-04-22T06:59:08.307Z,17.10
2018-04-22T07:01:34.891Z,16.97
2018-04-22T07:04:01.484Z,15.50
2018-04-22T07:06:28.075Z,15.87
2018-04-22T07:08:54.660Z,16.27
2018-04-22T07:11:21.259Z,16.03
2018-04-22T07:13:47.882Z,17.03
2018-04-22T07:16:14.532Z,16.37
2018-04-22T07:18:41.111Z,15.83
2018-04-22T07:21:08.063Z,14.67
2018-04-22T07:23:34.652Z,15.80
2018-04-22T07:26:01.243Z,14.73
2018-04-22T07:28:27.839Z,14.90
2018-04-22T07:30:54.428Z,14.33
2018-04-22T07:33:21.020Z,14.60
2018-04-22T07:35:47.637Z,14.13
2018-04-22T07:38:14.282Z,14.77
2018-04-22T07:40:40.884Z,13.47
2018-04-22T07:43:07.473Z,13.57
2018-04-22T07:45:34.080Z,13.63
2018-04-22T07:48:00.664Z,13.40
2018-04-22T07:50:27.260Z,13.20
2018-04-22T07:52:53.893Z,13.13
2018-04-22T07:55:20.475Z,13.07
2018-04-22T07:57:47.063Z,12.23
2018-04-22T08:00:13.694Z,13.07
2018-04-22T08:02:40.340Z,13.27
2018-04-22T08:05:08.121Z,12.67
2018-04-22T08:07:34.716Z,13.23
2018-04-22T08:10:01.316Z,12.20
2018-04-22T08:12:27.908Z,12.20
2018-04-22T08:14:54.513Z,12.00
2018-04-22T08:17:21.113Z,11.93
2018-04-22T08:19:47.796Z,11.57
2018-04-22T08:22:14.411Z,11.50
2018-04-22T08:24:41.010Z,11.60
2018-04-22T08:27:07.596Z,11.60
2018-04-22T08:29:34.252Z,11.80
2018-04-22T08:32:00.838Z,10.77
2018-04-22T08:34:27.440Z,11.43
2018-04-22T08:36:54.040Z,11.20
2018-04-22T08:39:20.640Z,10.80
2018-04-22T08:41:47.232Z,11.03
2018-04-22T08:44:13.816Z,10.77
2018-04-22T08:46:40.421Z,11.97
2018-04-22T08:49:07.016Z,12.30
2018-04-22T08:51:33.612Z,11.00
2018-04-22T08:54:00.214Z,12.13
2018-04-22T08:56:26.828Z,10.77
2018-04-22T08:58:53.412Z,10.83
2018-04-22T09:01:19.996Z,10.77
2018-04-22T09:03:46.583Z,9.87
2018-04-22T09:06:13.193Z,10.30
2018-04-22T09:08:39.788Z,9.70
2018-04-22T09:11:06.367Z,9.97
2018-04-22T09:13:32.968Z,11.00
2018-04-22T09:15:59.560Z,10.27
2018-04-22T09:18:26.139Z,11.00
2018-04-22T09:20:52.742Z,10.37
2018-04-22T09:23:19.333Z,10.13
2018-04-22T09:25:45.936Z,9.17
2018-04-22T09:28:12.525Z,10.00
2018-04-22T09:30:39.120Z,9.00
2018-04-22T09:33:05.721Z,10.40
2018-04-22T09:35:32.300Z,9.90
2018-04-22T09:37:58.893Z,9.83
2018-04-22T09:40:25.467Z,9.70
2018-04-22T09:42:52.147Z,9.50
2018-04-22T09:45:18.712Z,8.73
2018-04-22T09:47:45.300Z,9.00
2018-04-22T09:50:11.910Z,9.20
2018-04-22T09:52:38.504Z,8.57
2018-04-22T09:55:05.089Z,8.67
2018-04-22T09:57:31.684Z,8.17
2018-04-22T09:59:58.290Z,8.90
2018-04-22T10:02:30.536Z,8.53
2018-04-22T10:04:57.129Z,8.70
2018-04-22T10:07:23.707Z,8.10
2018-04-22T10:09:54.735Z,8.10
2018-04-22T10:12:21.315Z,7.80
2018-04-22T10:14:48.128Z,7.87
2018-04-22T10:17:14.703Z,7.50
2018-04-22T10:19:41.567Z,7.13
2018-04-22T10:22:08.170Z,7.60
2018-04-22T10:24:34.741Z,6.67
2018-04-22T10:27:01.332Z,7.47
2018-04-22T10:29:27.917Z,6.90
2018-04-22T10:31:54.525Z,7.40
2018-04-22T10:34:21.096Z,6.77
2018-04-22T10:36:47.698Z,7.80
2018-04-22T10:39:14.281Z,6.83
2018-04-22T10:41:40.884Z,6.50
2018-04-22T10:44:07.544Z,6.73
2018-04-22T10:46:34.116Z,7.43
2018-04-22T10:49:00.700Z,6.90
2018-04-22T10:51:27.370Z,6.60
2018-04-22T10:53:53.951Z,7.20
2018-04-22T10:56:20.540Z,7.37
2018-04-22T10:58:47.112Z,6.87
2018-04-22T11:01:13.705Z,7.10
2018-04-22T11:03:40.285Z,7.27
2018-04-22T11:06:06.945Z,7.20
2018-04-22T11:08:33.622Z,7.13
2018-04-22T11:11:00.188Z,7.37
2018-04-22T11:13:26.840Z,7.30
2018-04-22T11:15:53.424Z,7.50
2018-04-22T11:18:20.042Z,7.37
2018-04-22T11:20:46.631Z,6.97
2018-04-22T11:23:13.234Z,7.37
2018-04-22T11:25:39.877Z,7.70
2018-04-22T11:28:06.464Z,7.27
2018-04-22T11:30:33.047Z,8.60
2018-04-22T11:32:59.631Z,7.00
2018-04-22T11:35:26.228Z,7.33
2018-04-22T11:37:52.820Z,7.40
2018-04-22T11:40:19.408Z,7.40
2018-04-22T11:42:46.005Z,7.17
2018-04-22T11:45:12.609Z,7.10
2018-04-22T11:47:39.242Z,7.10
2018-04-22T11:50:05.820Z,6.60
2018-04-22T11:52:32.455Z,7.00
2018-04-22T11:54:59.035Z,6.90
2018-04-22T11:57:25.674Z,6.63
2018-04-22T11:59:52.308Z,6.73
2018-04-22T12:02:18.845Z,7.00
2018-04-22T12:04:45.458Z,7.00
2018-04-22T12:07:12.075Z,6.80
2018-04-22T12:09:38.649Z,6.10
2018-04-22T12:12:05.245Z,7.20
2018-04-22T12:14:31.823Z,6.70
2018-04-22T12:16:58.426Z,6.10
2018-04-22T12:19:25.008Z,6.47
2018-04-22T12:21:51.608Z,6.50
2018-04-22T12:24:18.208Z,6.77
2018-04-22T12:26:44.791Z,6.47
2018-04-22T12:29:11.392Z,6.50
2018-04-22T12:31:38.030Z,7.03
2018-04-22T12:34:04.606Z,6.20
2018-04-22T12:36:31.203Z,6.20
2018-04-22T12:38:57.790Z,6.30
2018-04-22T12:41:24.380Z,6.50
2018-04-22T12:43:50.968Z,7.10
2018-04-22T12:46:17.579Z,6.20
2018-04-22T12:48:44.188Z,6.13
2018-04-22T12:51:10.791Z,6.10
2018-04-22T12:53:37.381Z,5.90
2018-04-22T12:56:03.960Z,6.10
2018-04-22T12:58:30.560Z,6.27
2018-04-22T13:00:57.151Z,5.80
2018-04-22T13:03:23.729Z,5.00
2018-04-22T13:05:50.324Z,5.20
2018-04-22T13:08:16.908Z,5.00
2018-04-22T13:10:43.515Z,4.33
2018-04-22T13:13:10.144Z,5.50
2018-04-22T13:15:36.743Z,4.80
2018-04-22T13:18:03.332Z,4.10
2018-04-22T13:20:29.932Z,4.50
2018-04-22T13:22:56.528Z,5.30
2018-04-22T13:25:23.111Z,5.80
2018-04-22T13:27:50.627Z,5.10
2018-04-22T13:30:17.252Z,4.67
2018-04-22T13:32:43.836Z,5.13
2018-04-22T13:35:10.437Z,5.40
2018-04-22T13:37:37.024Z,5.50
2018-04-22T13:40:03.621Z,5.03
2018-04-22T13:42:30.198Z,5.50
2018-04-22T13:44:56.784Z,4.90
2018-04-22T13:47:23.367Z,5.43
2018-04-22T13:49:49.967Z,5.97
2018-04-22T13:52:16.544Z,4.60
2018-04-22T13:54:43.173Z,5.10
2018-04-22T13:57:09.729Z,4.70
2018-04-22T13:59:36.319Z,5.47
2018-04-22T14:02:02.948Z,5.10
2018-04-22T14:04:29.532Z,5.53
2018-04-22T14:06:56.121Z,4.70
2018-04-22T14:09:22.712Z,4.70
2018-04-22T14:11:49.295Z,4.73
2018-04-22T14:14:15.880Z,4.77
2018-04-22T14:16:42.459Z,4.70
2018-04-22T14:19:09.052Z,4.23
2018-04-22T14:21:39.028Z,4.50
2018-04-22T14:24:05.623Z,4.60
2018-04-22T14:26:32.251Z,4.50
2018-04-22T14:28:58.832Z,4.77
2018-04-22T14:31:25.423Z,4.20
2018-04-22T14:33:52.004Z,4.20
2018-04-22T14:36:18.588Z,4.50
2018-04-22T14:38:45.167Z,4.03
2018-04-22T14:41:12.149Z,4.33
2018-04-22T14:43:38.748Z,4.20
2018-04-22T14:46:11.277Z,4.67
2018-04-22T14:48:43.768Z,4.83
2018-04-22T14:51:10.361Z,4.33
2018-04-22T14:53:36.954Z,4.80
2018-04-22T14:56:03.548Z,4.70
2018-04-22T14:58:30.123Z,5.70
2018-04-22T15:00:56.711Z,5.43
2018-04-22T15:03:24.430Z,5.50
2018-04-22T15:05:51.358Z,5.87
2018-04-22T15:08:18.079Z,6.33
2018-04-22T15:10:44.689Z,6.10
2018-04-22T15:13:11.275Z,6.30
2018-04-22T15:15:37.991Z,6.07
2018-04-22T15:18:04.803Z,6.40
2018-04-22T15:20:31.372Z,6.50
2018-04-22T15:22:59.160Z,6.20
2018-04-22T15:25:25.747Z,6.43
2018-04-22T15:27:52.488Z,7.03
2018-04-22T15:30:19.132Z,7.00
2018-04-22T15:32:45.896Z,7.37
2018-04-22T15:35:12.509Z,7.20
2018-04-22T15:37:39.103Z,6.90
2018-04-22T15:40:05.693Z,7.30
2018-04-22T15:42:32.309Z,6.30
2018-04-22T15:44:58.963Z,6.53
2018-04-22T15:47:25.569Z,6.90
2018-04-22T15:49:52.215Z,7.10
2018-04-22T15:52:18.788Z,6.67
2018-04-22T15:54:45.380Z,7.23
2018-04-22T15:57:12.649Z,6.73
2018-04-22T15:59:39.238Z,6.73
2018-04-22T16:02:05.824Z,6.90
2018-04-22T16:04:33.341Z,7.00
2018-04-22T16:06:59.934Z,7.10
2018-04-22T16:09:26.511Z,7.70
2018-04-22T16:11:53.100Z,7.80
2018-04-22T16:14:19.717Z,7.77
2018-04-22T16:16:46.288Z,7.17
2018-04-22T16:19:12.872Z,7.97
2018-04-22T16:21:39.468Z,8.07
2018-04-22T16:24:06.055Z,7.80
2018-04-22T16:26:32.636Z,7.60
2018-04-22T16:28:59.384Z,7.17
2018-04-22T16:31:25.968Z,8.13
2018-04-22T16:33:52.588Z,7.93
2018-04-22T16:36:19.169Z,9.70
2018-04-22T16:38:45.759Z,7.80
2018-04-22T16:41:12.340Z,7.17
2018-04-22T16:43:38.911Z,7.57
2018-04-22T16:46:05.507Z,8.00
2018-04-22T16:48:32.121Z,7.50
2018-04-22T16:50:58.743Z,7.50
2018-04-22T16:53:25.325Z,7.60
2018-04-22T16:55:52.033Z,7.53
2018-04-22T16:58:18.559Z,10.30
2018-04-22T17:00:45.148Z,12.63
2018-04-22T17:03:11.741Z,7.93
2018-04-22T17:05:38.340Z,10.07
2018-04-22T17:08:05.047Z,12.70
2018-04-22T17:10:31.656Z,11.80
2018-04-22T17:12:58.258Z,8.43
2018-04-22T17:15:24.838Z,7.73
2018-04-22T17:17:51.416Z,7.87
2018-04-22T17:20:17.999Z,7.30
2018-04-22T17:22:44.595Z,7.70
2018-04-22T17:25:11.192Z,8.00
2018-04-22T17:27:37.776Z,8.90
2018-04-22T17:30:04.412Z,8.67
2018-04-22T17:32:31.002Z,7.20
2018-04-22T17:34:57.579Z,7.97
2018-04-22T17:37:24.179Z,7.70
2018-04-22T17:39:50.751Z,7.83
2018-04-22T17:42:17.332Z,8.20
2018-04-22T17:44:43.920Z,7.73
2018-04-22T17:47:10.548Z,8.00
2018-04-22T17:49:37.124Z,8.03
2018-04-22T17:52:03.712Z,7.87
2018-04-22T17:54:30.313Z,8.20
2018-04-22T17:56:56.897Z,8.10
2018-04-22T17:59:23.491Z,7.80
2018-04-22T18:01:50.089Z,8.70
2018-04-22T18:04:16.710Z,8.10
2018-04-22T18:06:43.304Z,7.77
2018-04-22T18:09:09.877Z,8.30
2018-04-22T18:11:36.468Z,7.30
2018-04-22T18:14:03.063Z,7.60
2018-04-22T18:16:29.662Z,8.40
2018-04-22T18:18:56.243Z,7.80
2018-04-22T18:21:22.831Z,8.20
2018-04-22T18:23:49.479Z,8.67
2018-04-22T18:26:16.068Z,8.53
2018-04-22T18:28:42.662Z,8.33
2018-04-22T18:31:09.237Z,8.50
2018-04-22T18:33:35.828Z,8.07
2018-04-22T18:36:02.447Z,8.27
2018-04-22T18:38:29.377Z,8.60
2018-04-22T18:40:55.996Z,8.60
2018-04-22T18:43:22.580Z,8.40
2018-04-22T18:45:49.168Z,8.50
2018-04-22T18:48:15.756Z,8.60
2018-04-22T18:50:42.352Z,8.10
2018-04-22T18:53:08.932Z,8.30
2018-04-22T18:55:35.535Z,8.07
2018-04-22T18:58:02.159Z,8.50
2018-04-22T19:00:28.747Z,8.17
2018-04-22T19:02:55.344Z,8.87
2018-04-22T19:05:21.940Z,7.80
2018-04-22T19:07:48.527Z,8.33
2018-04-22T19:10:15.104Z,8.10
2018-04-22T19:12:41.699Z,8.77
2018-04-22T19:15:08.319Z,8.40
2018-04-22T19:17:34.903Z,7.77
2018-04-22T19:20:01.484Z,8.63
2018-04-22T19:22:28.132Z,8.50
2018-04-22T19:24:54.715Z,9.07
2018-04-22T19:27:21.316Z,8.93
2018-04-22T19:29:49.101Z,9.13
2018-04-22T19:32:15.675Z,8.40
2018-04-22T19:34:42.290Z,9.00
2018-04-22T19:37:08.857Z,8.30
2018-04-22T19:39:35.449Z,9.03
2018-04-22T19:42:02.034Z,9.20
2018-04-22T19:44:28.616Z,8.50
2018-04-22T19:46:55.209Z,9.03
2018-04-22T19:49:21.791Z,9.13
2018-04-22T19:51:48.372Z,9.40
2018-04-22T19:54:14.960Z,8.70
2018-04-22T19:56:41.543Z,8.10
2018-04-22T19:59:08.150Z,8.97
2018-04-22T20:01:34.727Z,8.70
2018-04-22T20:04:01.334Z,9.07
2018-04-22T20:06:27.929Z,9.10
2018-04-22T20:08:54.508Z,8.93
2018-04-22T20:11:21.112Z,9.53
2018-04-22T20:13:47.693Z,10.23
2018-04-22T20:16:14.284Z,10.83
2018-04-22T20:18:40.990Z,8.93
2018-04-22T20:21:07.680Z,9.30
2018-04-22T20:23:34.265Z,8.80
2018-04-22T20:26:00.848Z,9.27
2018-04-22T20:28:27.731Z,8.00
2018-04-22T20:30:54.320Z,8.40
2018-04-22T20:33:20.989Z,8.83
2018-04-22T20:35:47.573Z,8.80
2018-04-22T20:38:14.164Z,8.20
2018-04-22T20:40:40.760Z,8.60
2018-04-22T20:43:07.352Z,8.30
2018-04-22T20:45:33.957Z,8.27
2018-04-22T20:48:00.549Z,9.20
2018-04-22T20:50:27.128Z,8.60
2018-04-22T20:52:53.721Z,8.97
2018-04-22T20:55:20.305Z,8.47
2018-04-22T20:57:46.884Z,8.80
2018-04-22T21:00:13.479Z,8.87
2018-04-22T21:02:40.061Z,8.80
2018-04-22T21:05:06.652Z,8.47
2018-04-22T21:07:33.252Z,8.30
2018-04-22T21:09:59.836Z,8.43
2018-04-22T21:12:26.433Z,7.80
2018-04-22T21:14:53.012Z,8.30
2018-04-22T21:17:19.604Z,9.13
2018-04-22T21:19:46.188Z,8.63
2018-04-22T21:22:12.860Z,8.80
2018-04-22T21:24:39.511Z,9.10
2018-04-22T21:27:06.094Z,7.97
2018-04-22T21:29:32.710Z,8.43
2018-04-22T21:31:59.280Z,8.17
2018-04-22T21:34:25.868Z,8.40
2018-04-22T21:36:52.447Z,7.97
2018-04-22T21:39:19.063Z,8.03
2018-04-22T21:41:45.646Z,8.80
2018-04-22T21:44:12.239Z,8.97
2018-04-22T21:46:38.836Z,9.03
2018-04-22T21:49:05.428Z,7.73
2018-04-22T21:51:32.020Z,9.10
2018-04-22T21:53:58.600Z,8.40
2018-04-22T21:56:25.192Z,8.40
2018-04-22T21:58:51.776Z,8.20
2018-04-22T22:01:18.384Z,8.23
2018-04-22T22:03:44.972Z,8.33
2018-04-22T22:06:11.552Z,8.20
2018-04-22T22:08:38.156Z,8.40
2018-04-22T22:11:04.741Z,8.50
2018-04-22T22:13:31.339Z,8.30
2018-04-22T22:15:57.923Z,8.27
2018-04-22T22:18:24.510Z,7.97
2018-04-22T22:20:51.101Z,8.70
2018-04-22T22:23:17.683Z,8.27
2018-04-22T22:25:44.279Z,8.67
2018-04-22T22:28:10.892Z,8.30
2018-04-22T22:30:37.472Z,8.17
2018-04-22T22:33:04.063Z,8.30
2018-04-22T22:35:30.644Z,8.07
2018-04-22T22:37:57.240Z,9.40
2018-04-22T22:40:23.832Z,8.40
2018-04-22T22:42:50.411Z,7.93
2018-04-22T22:45:17.008Z,8.10
2018-04-22T22:47:43.600Z,8.67
2018-04-22T22:50:10.212Z,8.27
2018-04-22T22:52:36.800Z,8.10
2018-04-22T22:55:03.380Z,8.40
2018-04-22T22:57:29.964Z,8.90
2018-04-22T22:59:56.556Z,8.53
2018-04-22T23:02:23.156Z,8.30
2018-04-22T23:04:49.736Z,9.00
2018-04-22T23:07:16.334Z,8.00
2018-04-22T23:09:42.915Z,8.70
2018-04-22T23:12:09.488Z,8.47
2018-04-22T23:14:36.096Z,8.60
2018-04-22T23:17:02.676Z,8.20
2018-04-22T23:19:29.256Z,8.47
2018-04-22T23:21:55.847Z,8.30
2018-04-22T23:24:22.531Z,8.40
2018-04-22T23:26:49.123Z,8.70
2018-04-22T23:29:15.703Z,8.20
2018-04-22T23:31:42.283Z,8.67
2018-04-22T23:34:09.797Z,8.70
2018-04-22T23:36:36.382Z,8.87
2018-04-22T23:39:02.980Z,8.37
2018-04-22T23:41:29.564Z,9.57
2018-04-22T23:43:56.144Z,8.97
2018-04-22T23:46:22.740Z,8.20
2018-04-22T23:48:49.316Z,8.47
2018-04-22T23:51:15.912Z,8.90
2018-04-22T23:53:42.509Z,8.70
2018-04-22T23:56:09.088Z,8.97
2018-04-22T23:58:35.684Z,9.07
